M Y Suncoco — SY7908 — position and weather

sailwx.info

Track history (hours):
 
Tides and Currents Weather Stations Pressure Air Temp Water Temp Dewpoint Dewpoint Depression Visibility Wind Speed Wind Dir Waves Ship Positions

M Y Suncoco

Last reported at 2016-Jul-20 19:09 UTC. Time now 2016-Jul-24 14:41 UTC.
Position N 37°55' E 023°01'.

Length 32 m; draft 2.8 m.

Type: Other ship. MMSI: 239112700.

Date/timePositionNaut miles runAvg speedWind from/ knotsBaromVisibWave heightAir tempDewpointWater temp
2016-Jul-20 19:09N 37°55' E 023°01'710.6
2016-Jul-20 18:32N 37°51' E 023°08'1010.0
2016-Jul-20 17:33N 37°42' E 023°11'3 1.7
2016-Jul-20 15:32N 37°38' E 023°10'0 0.0
2016-Jul-20 14:26N 37°38' E 023°10'0 0.0
2016-Jul-20 13:32N 37°38' E 023°10'8 4.0
2016-Jul-20 11:33N 37°40' E 023°19'1110.7
2016-Jul-20 10:33N 37°42' E 023°33'1110.7
2016-Jul-20 09:34N 37°47' E 023°45'2 2.0
2016-Jul-20 08:33N 37°48' E 023°46'0 0.0
2016-Jul-20 07:33N 37°48' E 023°46'0 0.0
2016-Jul-20 06:33N 37°48' E 023°46'0 0.0
2016-Jul-20 05:33N 37°48' E 023°46'  
2016-Jul-17 22:32N 37°48' E 023°46'8 7.9
2016-Jul-17 21:33N 37°42' E 023°52'1210.2
2016-Jul-17 20:25N 37°35' E 024°04'2310.5
2016-Jul-17 18:15N 37°32' E 024°33'1010.6
2016-Jul-17 17:21N 37°31' E 024°45'1910.7
2016-Jul-17 15:33N 37°29' E 025°09'9 6.4
2016-Jul-17 14:13N 37°27' E 025°19'5 7.9
2016-Jul-17 13:33N 37°22' E 025°17'2 1.5
2016-Jul-17 12:16N 37°23' E 025°14'0 0.0
2016-Jul-17 09:17N 37°23' E 025°14'710.2
2016-Jul-17 08:33N 37°15' E 025°15'6 0.3
2016-Jul-16 08:33N 37°09' E 025°16'6 5.8
2016-Jul-16 07:32N 37°03' E 025°16'0 0.0
2016-Jul-16 06:29N 37°03' E 025°16'0 0.0
2016-Jul-16 04:32N 37°03' E 025°16'0 0.0
2016-Jul-16 03:32N 37°03' E 025°16'0 0.0
2016-Jul-16 02:32N 37°03' E 025°16'0 0.0
2016-Jul-16 01:32N 37°03' E 025°16'0 0.0
2016-Jul-16 00:32N 37°03' E 025°16'0 0.0
2016-Jul-15 23:32N 37°03' E 025°16'0 0.0
2016-Jul-15 22:32N 37°03' E 025°16'0 0.0
2016-Jul-15 21:26N 37°03' E 025°16'0 0.0
2016-Jul-15 20:32N 37°03' E 025°16'0 0.0
2016-Jul-15 19:32N 37°03' E 025°16'0 0.0
2016-Jul-15 18:32N 37°03' E 025°16'4 3.5
2016-Jul-15 17:32N 37°05' E 025°20'0 0.0
2016-Jul-15 16:32N 37°05' E 025°20'0 0.0
2016-Jul-15 15:32N 37°05' E 025°20'0 0.0
2016-Jul-15 14:32N 37°05' E 025°20'2 2.2
2016-Jul-15 13:33N 37°02' E 025°20'76 1.9
2016-Jul-13 22:14N 36°54' E 023°45'711.0
2016-Jul-13 21:33N 36°55' E 023°36'1311.4
2016-Jul-13 20:27N 36°57' E 023°20'1011.2
2016-Jul-13 19:33N 36°58' E 023°08'19 2.6
2016-Jul-13 12:05N 37°14' E 022°54'20 0.4
2016-Jul-11 14:20N 37°21' E 023°18'5 1.3
2016-Jul-11 10:33N 37°23' E 023°24'8 7.7
2016-Jul-11 09:33N 37°29' E 023°29'3 0.3
2016-Jul-10 22:16N 37°31' E 023°26'0 0.0
2016-Jul-10 21:31N 37°31' E 023°26'0 0.0
2016-Jul-10 20:31N 37°31' E 023°26'0 0.0
2016-Jul-10 19:31N 37°31' E 023°26'  
Track history (hours):
 
Tides and Currents Weather Stations Pressure Air Temp Water Temp Dewpoint Dewpoint Depression Visibility Wind Speed Wind Dir Waves Ship Positions

M Y Suncoco

Last reported at 2016-Jul-20 19:09 UTC. Time now 2016-Jul-24 14:41 UTC.
Position N 37°55' E 023°01'.

Length 32 m; draft 2.8 m.

Type: Other ship. MMSI: 239112700.

Date/timePositionNaut miles runAvg speedWind from/ knotsBaromVisibWave heightAir tempDewpointWater temp
2016-Jul-20 19:09N 37°55' E 023°01'710.6
2016-Jul-20 18:32N 37°51' E 023°08'1010.0
2016-Jul-20 17:33N 37°42' E 023°11'3 1.7
2016-Jul-20 15:32N 37°38' E 023°10'0 0.0
2016-Jul-20 14:26N 37°38' E 023°10'0 0.0
2016-Jul-20 13:32N 37°38' E 023°10'8 4.0
2016-Jul-20 11:33N 37°40' E 023°19'1110.7
2016-Jul-20 10:33N 37°42' E 023°33'1110.7
2016-Jul-20 09:34N 37°47' E 023°45'2 2.0
2016-Jul-20 08:33N 37°48' E 023°46'0 0.0
2016-Jul-20 07:33N 37°48' E 023°46'0 0.0
2016-Jul-20 06:33N 37°48' E 023°46'0 0.0
2016-Jul-20 05:33N 37°48' E 023°46'  
2016-Jul-17 22:32N 37°48' E 023°46'8 7.9
2016-Jul-17 21:33N 37°42' E 023°52'1210.2
2016-Jul-17 20:25N 37°35' E 024°04'2310.5
2016-Jul-17 18:15N 37°32' E 024°33'1010.6
2016-Jul-17 17:21N 37°31' E 024°45'1910.7
2016-Jul-17 15:33N 37°29' E 025°09'9 6.4
2016-Jul-17 14:13N 37°27' E 025°19'5 7.9
2016-Jul-17 13:33N 37°22' E 025°17'2 1.5
2016-Jul-17 12:16N 37°23' E 025°14'0 0.0
2016-Jul-17 09:17N 37°23' E 025°14'710.2
2016-Jul-17 08:33N 37°15' E 025°15'6 0.3
2016-Jul-16 08:33N 37°09' E 025°16'6 5.8
2016-Jul-16 07:32N 37°03' E 025°16'0 0.0
2016-Jul-16 06:29N 37°03' E 025°16'0 0.0
2016-Jul-16 04:32N 37°03' E 025°16'0 0.0
2016-Jul-16 03:32N 37°03' E 025°16'0 0.0
2016-Jul-16 02:32N 37°03' E 025°16'0 0.0
2016-Jul-16 01:32N 37°03' E 025°16'0 0.0
2016-Jul-16 00:32N 37°03' E 025°16'0 0.0
2016-Jul-15 23:32N 37°03' E 025°16'0 0.0
2016-Jul-15 22:32N 37°03' E 025°16'0 0.0
2016-Jul-15 21:26N 37°03' E 025°16'0 0.0
2016-Jul-15 20:32N 37°03' E 025°16'0 0.0
2016-Jul-15 19:32N 37°03' E 025°16'0 0.0
2016-Jul-15 18:32N 37°03' E 025°16'4 3.5
2016-Jul-15 17:32N 37°05' E 025°20'0 0.0
2016-Jul-15 16:32N 37°05' E 025°20'0 0.0
2016-Jul-15 15:32N 37°05' E 025°20'0 0.0
2016-Jul-15 14:32N 37°05' E 025°20'2 2.2
2016-Jul-15 13:33N 37°02' E 025°20'76 1.9
2016-Jul-13 22:14N 36°54' E 023°45'711.0
2016-Jul-13 21:33N 36°55' E 023°36'1311.4
2016-Jul-13 20:27N 36°57' E 023°20'1011.2
2016-Jul-13 19:33N 36°58' E 023°08'19 2.6
2016-Jul-13 12:05N 37°14' E 022°54'20 0.4
2016-Jul-11 14:20N 37°21' E 023°18'5 1.3
2016-Jul-11 10:33N 37°23' E 023°24'8 7.7
2016-Jul-11 09:33N 37°29' E 023°29'3 0.3
2016-Jul-10 22:16N 37°31' E 023°26'0 0.0
2016-Jul-10 21:31N 37°31' E 023°26'0 0.0
2016-Jul-10 20:31N 37°31' E 023°26'0 0.0
2016-Jul-10 19:31N 37°31' E 023°26'  

Dump ship's entire track history